Terminal Aerodrome Forecast
Issued by NWS

Home | Current Version | Previous Version | Text Only | Print | Product List | Glossary On
Versions: 1 2 3 4 5 6 7 8 9 10 11 12 13
940
FTUS44 KTSA 220520
TAFBVO
TAF
KBVO 220520Z 2206/2306 19005KT P6SM SCT110 BKN250
     FM221000 20005KT P6SM VCSH BKN100
     FM221500 24007KT P6SM SCT050 BKN150
     FM221900 01007KT P6SM VCTS BKN050CB
     FM222200 03005KT P6SM BKN250=

USA.gov is the U.S. government's official web portal to all federal, state and local government web resources and services.